sensor_id;sensor_type;location;lat;lon;timestamp;P1;durP1;ratioP1;P2;durP2;ratioP2
39776;SDS011;25453;48.162;14.510;2022-07-23T12:18:40;2.95;;;1.88;;
39776;SDS011;25453;48.162;14.510;2022-07-23T12:21:08;3.90;;;2.25;;
39776;SDS011;25453;48.162;14.510;2022-07-23T12:23:35;3.83;;;2.00;;
39776;SDS011;25453;48.162;14.510;2022-07-23T12:26:05;5.22;;;2.40;;
39776;SDS011;25453;48.162;14.510;2022-07-23T12:28:35;3.60;;;2.50;;
39776;SDS011;25453;48.162;14.510;2022-07-23T12:31:04;6.53;;;3.10;;
39776;SDS011;25453;48.162;14.510;2022-07-23T12:33:38;4.10;;;2.63;;
39776;SDS011;25453;48.162;14.510;2022-07-23T12:36:09;5.75;;;2.42;;
39776;SDS011;25453;48.162;14.510;2022-07-23T12:38:47;3.42;;;2.30;;
39776;SDS011;25453;48.162;14.510;2022-07-23T12:41:15;3.80;;;2.40;;
39776;SDS011;25453;48.162;14.510;2022-07-23T12:43:44;3.03;;;2.13;;
39776;SDS011;25453;48.162;14.510;2022-07-23T12:46:20;5.60;;;3.03;;
39776;SDS011;25453;48.162;14.510;2022-07-23T12:54:28;4.00;;;2.58;;
39776;SDS011;25453;48.162;14.510;2022-07-23T12:56:56;4.82;;;2.63;;
39776;SDS011;25453;48.162;14.510;2022-07-23T12:59:24;5.22;;;2.85;;
39776;SDS011;25453;48.162;14.510;2022-07-23T13:02:00;4.70;;;2.40;;
39776;SDS011;25453;48.162;14.510;2022-07-23T13:04:29;4.28;;;2.47;;
39776;SDS011;25453;48.162;14.510;2022-07-23T13:06:59;4.38;;;2.88;;
39776;SDS011;25453;48.162;14.510;2022-07-23T13:09:31;4.03;;;2.40;;
39776;SDS011;25453;48.162;14.510;2022-07-23T13:12:08;4.15;;;2.20;;
39776;SDS011;25453;48.162;14.510;2022-07-23T13:14:37;3.90;;;2.60;;
39776;SDS011;25453;48.162;14.510;2022-07-23T13:17:05;3.95;;;2.10;;
39776;SDS011;25453;48.162;14.510;2022-07-23T13:19:33;4.70;;;2.72;;
39776;SDS011;25453;48.162;14.510;2022-07-23T13:22:01;4.35;;;2.88;;
39776;SDS011;25453;48.162;14.510;2022-07-23T13:24:35;3.60;;;2.28;;
39776;SDS011;25453;48.162;14.510;2022-07-23T13:27:05;4.68;;;3.00;;
39776;SDS011;25453;48.162;14.510;2022-07-23T13:29:38;4.18;;;2.50;;
39776;SDS011;25453;48.162;14.510;2022-07-23T13:32:11;4.85;;;2.75;;
39776;SDS011;25453;48.162;14.510;2022-07-23T13:34:39;4.47;;;2.85;;
39776;SDS011;25453;48.162;14.510;2022-07-23T13:37:07;6.70;;;3.53;;
39776;SDS011;25453;48.162;14.510;2022-07-23T13:39:36;5.28;;;3.30;;
39776;SDS011;25453;48.162;14.510;2022-07-23T13:42:05;5.78;;;3.03;;
39776;SDS011;25453;48.162;14.510;2022-07-23T13:44:34;5.57;;;3.50;;
39776;SDS011;25453;48.162;14.510;2022-07-23T13:47:04;4.75;;;2.95;;
39776;SDS011;25453;48.162;14.510;2022-07-23T13:49:33;5.07;;;3.10;;
39776;SDS011;25453;48.162;14.510;2022-07-23T13:52:02;4.55;;;3.05;;
39776;SDS011;25453;48.162;14.510;2022-07-23T13:54:43;4.32;;;3.00;;
39776;SDS011;25453;48.162;14.510;2022-07-23T13:57:13;5.53;;;3.33;;
39776;SDS011;25453;48.162;14.510;2022-07-23T13:59:43;5.53;;;2.75;;
39776;SDS011;25453;48.162;14.510;2022-07-23T14:02:10;4.90;;;3.15;;
39776;SDS011;25453;48.162;14.510;2022-07-23T14:04:51;4.53;;;3.08;;
39776;SDS011;25453;48.162;14.510;2022-07-23T14:07:22;4.85;;;2.85;;
39776;SDS011;25453;48.162;14.510;2022-07-23T14:09:55;5.75;;;3.58;;
39776;SDS011;25453;48.162;14.510;2022-07-23T14:12:25;6.55;;;3.30;;
39776;SDS011;25453;48.162;14.510;2022-07-23T14:14:59;5.78;;;3.10;;
39776;SDS011;25453;48.162;14.510;2022-07-23T14:17:27;5.10;;;3.05;;
39776;SDS011;25453;48.162;14.510;2022-07-23T14:19:55;20.40;;;4.18;;
39776;SDS011;25453;48.162;14.510;2022-07-23T14:22:22;10.25;;;4.45;;
39776;SDS011;25453;48.162;14.510;2022-07-23T14:24:51;12.65;;;4.80;;
39776;SDS011;25453;48.162;14.510;2022-07-23T14:27:19;19.52;;;4.32;;
39776;SDS011;25453;48.162;14.510;2022-07-23T14:29:47;16.05;;;3.58;;
39776;SDS011;25453;48.162;14.510;2022-07-23T14:32:15;10.15;;;3.70;;
39776;SDS011;25453;48.162;14.510;2022-07-23T14:34:43;6.70;;;3.55;;
39776;SDS011;25453;48.162;14.510;2022-07-23T14:37:13;6.20;;;3.25;;
39776;SDS011;25453;48.162;14.510;2022-07-23T14:39:42;6.22;;;3.55;;
39776;SDS011;25453;48.162;14.510;2022-07-23T14:42:11;4.88;;;3.00;;
39776;SDS011;25453;48.162;14.510;2022-07-23T14:44:39;4.97;;;3.28;;
39776;SDS011;25453;48.162;14.510;2022-07-23T14:47:08;5.40;;;3.47;;
39776;SDS011;25453;48.162;14.510;2022-07-23T14:49:36;4.38;;;2.90;;
39776;SDS011;25453;48.162;14.510;2022-07-23T14:52:04;4.43;;;2.85;;
39776;SDS011;25453;48.162;14.510;2022-07-23T14:54:33;4.55;;;3.22;;
39776;SDS011;25453;48.162;14.510;2022-07-23T14:57:01;6.75;;;3.30;;
39776;SDS011;25453;48.162;14.510;2022-07-23T14:59:30;5.82;;;3.88;;
39776;SDS011;25453;48.162;14.510;2022-07-23T15:01:59;6.10;;;3.85;;
39776;SDS011;25453;48.162;14.510;2022-07-23T15:04:27;5.78;;;3.53;;
39776;SDS011;25453;48.162;14.510;2022-07-23T15:07:15;5.63;;;3.50;;
39776;SDS011;25453;48.162;14.510;2022-07-23T15:09:42;5.07;;;3.53;;
39776;SDS011;25453;48.162;14.510;2022-07-23T15:12:09;6.07;;;3.67;;
39776;SDS011;25453;48.162;14.510;2022-07-23T15:14:38;8.15;;;3.50;;
39776;SDS011;25453;48.162;14.510;2022-07-23T15:17:06;6.63;;;3.80;;
39776;SDS011;25453;48.162;14.510;2022-07-23T15:19:36;5.68;;;3.90;;
39776;SDS011;25453;48.162;14.510;2022-07-23T15:22:03;7.63;;;3.45;;
39776;SDS011;25453;48.162;14.510;2022-07-23T15:24:33;5.85;;;3.65;;
39776;SDS011;25453;48.162;14.510;2022-07-23T15:27:01;5.72;;;3.40;;
39776;SDS011;25453;48.162;14.510;2022-07-23T15:29:30;4.85;;;3.10;;
39776;SDS011;25453;48.162;14.510;2022-07-23T15:31:57;5.68;;;3.30;;
39776;SDS011;25453;48.162;14.510;2022-07-23T15:34:27;4.90;;;3.05;;
39776;SDS011;25453;48.162;14.510;2022-07-23T15:36:55;5.03;;;3.00;;
39776;SDS011;25453;48.162;14.510;2022-07-23T15:39:25;3.72;;;2.47;;
39776;SDS011;25453;48.162;14.510;2022-07-23T15:41:54;4.53;;;2.88;;
39776;SDS011;25453;48.162;14.510;2022-07-23T15:44:24;5.50;;;3.40;;
39776;SDS011;25453;48.162;14.510;2022-07-23T15:46:55;4.28;;;2.72;;
39776;SDS011;25453;48.162;14.510;2022-07-23T15:49:25;4.10;;;2.47;;
39776;SDS011;25453;48.162;14.510;2022-07-23T15:51:54;4.68;;;2.58;;
39776;SDS011;25453;48.162;14.510;2022-07-23T15:54:23;4.53;;;2.50;;
39776;SDS011;25453;48.162;14.510;2022-07-23T15:56:50;4.80;;;2.50;;
39776;SDS011;25453;48.162;14.510;2022-07-23T15:59:18;4.03;;;2.47;;
39776;SDS011;25453;48.162;14.510;2022-07-23T16:01:46;5.90;;;2.58;;
39776;SDS011;25453;48.162;14.510;2022-07-23T16:04:13;4.50;;;2.40;;
39776;SDS011;25453;48.162;14.510;2022-07-23T16:06:41;3.53;;;2.30;;
39776;SDS011;25453;48.162;14.510;2022-07-23T16:09:08;4.35;;;2.40;;
39776;SDS011;25453;48.162;14.510;2022-07-23T16:11:44;3.38;;;2.20;;
39776;SDS011;25453;48.162;14.510;2022-07-23T16:14:12;3.67;;;2.28;;
39776;SDS011;25453;48.162;14.510;2022-07-23T16:16:40;3.85;;;2.50;;
39776;SDS011;25453;48.162;14.510;2022-07-23T16:19:08;5.03;;;2.15;;
39776;SDS011;25453;48.162;14.510;2022-07-23T16:21:36;4.90;;;2.38;;
39776;SDS011;25453;48.162;14.510;2022-07-23T16:24:04;4.72;;;2.83;;
39776;SDS011;25453;48.162;14.510;2022-07-23T16:26:32;4.25;;;2.78;;
39776;SDS011;25453;48.162;14.510;2022-07-23T16:29:00;3.85;;;2.30;;
39776;SDS011;25453;48.162;14.510;2022-07-23T16:31:31;4.95;;;2.42;;
39776;SDS011;25453;48.162;14.510;2022-07-23T16:33:59;3.65;;;2.42;;
39776;SDS011;25453;48.162;14.510;2022-07-23T16:36:26;3.88;;;2.33;;
39776;SDS011;25453;48.162;14.510;2022-07-23T16:38:54;4.03;;;2.33;;
39776;SDS011;25453;48.162;14.510;2022-07-23T16:41:21;3.28;;;2.03;;
39776;SDS011;25453;48.162;14.510;2022-07-23T16:43:48;4.05;;;2.35;;
39776;SDS011;25453;48.162;14.510;2022-07-23T16:46:17;3.50;;;1.88;;
39776;SDS011;25453;48.162;14.510;2022-07-23T16:48:47;3.40;;;2.10;;
39776;SDS011;25453;48.162;14.510;2022-07-23T16:51:15;2.53;;;1.60;;
39776;SDS011;25453;48.162;14.510;2022-07-23T16:53:45;3.10;;;2.03;;
39776;SDS011;25453;48.162;14.510;2022-07-23T16:56:13;3.67;;;2.20;;
39776;SDS011;25453;48.162;14.510;2022-07-23T16:58:40;3.17;;;1.80;;
39776;SDS011;25453;48.162;14.510;2022-07-23T17:01:08;2.55;;;1.70;;
39776;SDS011;25453;48.162;14.510;2022-07-23T17:03:39;2.40;;;1.70;;
39776;SDS011;25453;48.162;14.510;2022-07-23T17:06:10;3.40;;;1.80;;
39776;SDS011;25453;48.162;14.510;2022-07-23T17:08:37;2.85;;;1.40;;
39776;SDS011;25453;48.162;14.510;2022-07-23T17:11:17;3.13;;;1.92;;
39776;SDS011;25453;48.162;14.510;2022-07-23T17:13:44;2.95;;;1.58;;
39776;SDS011;25453;48.162;14.510;2022-07-23T17:16:15;3.08;;;1.90;;
39776;SDS011;25453;48.162;14.510;2022-07-23T17:18:43;2.63;;;1.40;;
39776;SDS011;25453;48.162;14.510;2022-07-23T17:21:11;2.92;;;1.73;;
39776;SDS011;25453;48.162;14.510;2022-07-23T17:23:38;3.10;;;1.65;;
39776;SDS011;25453;48.162;14.510;2022-07-23T17:26:06;2.75;;;1.70;;
39776;SDS011;25453;48.162;14.510;2022-07-23T17:28:33;2.83;;;1.52;;
39776;SDS011;25453;48.162;14.510;2022-07-23T17:31:04;2.45;;;1.52;;
39776;SDS011;25453;48.162;14.510;2022-07-23T17:33:32;2.72;;;1.52;;
39776;SDS011;25453;48.162;14.510;2022-07-23T17:35:59;2.53;;;1.50;;
39776;SDS011;25453;48.162;14.510;2022-07-23T17:38:27;2.20;;;1.17;;
39776;SDS011;25453;48.162;14.510;2022-07-23T17:40:57;2.40;;;1.48;;
39776;SDS011;25453;48.162;14.510;2022-07-23T17:43:25;2.50;;;1.42;;
39776;SDS011;25453;48.162;14.510;2022-07-23T17:45:53;1.58;;;1.08;;
39776;SDS011;25453;48.162;14.510;2022-07-23T17:48:20;2.40;;;1.30;;
39776;SDS011;25453;48.162;14.510;2022-07-23T17:50:48;1.70;;;1.02;;
39776;SDS011;25453;48.162;14.510;2022-07-23T17:53:21;2.08;;;1.30;;
39776;SDS011;25453;48.162;14.510;2022-07-23T17:55:54;2.42;;;1.02;;
39776;SDS011;25453;48.162;14.510;2022-07-23T17:58:22;3.10;;;1.90;;
39776;SDS011;25453;48.162;14.510;2022-07-23T18:00:52;2.67;;;1.70;;
39776;SDS011;25453;48.162;14.510;2022-07-23T18:03:20;4.07;;;2.25;;
39776;SDS011;25453;48.162;14.510;2022-07-23T18:05:48;3.03;;;2.00;;
39776;SDS011;25453;48.162;14.510;2022-07-23T18:08:15;4.53;;;2.72;;
39776;SDS011;25453;48.162;14.510;2022-07-23T18:10:42;3.83;;;2.20;;
39776;SDS011;25453;48.162;14.510;2022-07-23T18:13:10;3.70;;;2.17;;
39776;SDS011;25453;48.162;14.510;2022-07-23T18:15:37;5.55;;;2.35;;
39776;SDS011;25453;48.162;14.510;2022-07-23T18:18:05;4.20;;;2.45;;
39776;SDS011;25453;48.162;14.510;2022-07-23T18:20:32;3.15;;;2.00;;
39776;SDS011;25453;48.162;14.510;2022-07-23T18:23:03;3.63;;;2.03;;
39776;SDS011;25453;48.162;14.510;2022-07-23T18:25:31;3.10;;;2.03;;
39776;SDS011;25453;48.162;14.510;2022-07-23T18:27:59;3.40;;;1.80;;
39776;SDS011;25453;48.162;14.510;2022-07-23T18:30:27;3.08;;;1.80;;
39776;SDS011;25453;48.162;14.510;2022-07-23T18:32:56;3.97;;;2.00;;
39776;SDS011;25453;48.162;14.510;2022-07-23T18:35:31;3.70;;;2.28;;
39776;SDS011;25453;48.162;14.510;2022-07-23T18:37:59;2.25;;;1.42;;
39776;SDS011;25453;48.162;14.510;2022-07-23T18:40:30;3.45;;;2.05;;
39776;SDS011;25453;48.162;14.510;2022-07-23T18:42:59;4.43;;;2.35;;
39776;SDS011;25453;48.162;14.510;2022-07-23T18:45:27;2.83;;;1.67;;
39776;SDS011;25453;48.162;14.510;2022-07-23T18:47:56;2.55;;;1.55;;
39776;SDS011;25453;48.162;14.510;2022-07-23T18:50:24;4.00;;;2.30;;
39776;SDS011;25453;48.162;14.510;2022-07-23T18:52:52;4.13;;;2.60;;
39776;SDS011;25453;48.162;14.510;2022-07-23T18:55:20;3.92;;;2.22;;
39776;SDS011;25453;48.162;14.510;2022-07-23T18:57:47;3.75;;;2.47;;
39776;SDS011;25453;48.162;14.510;2022-07-23T19:00:15;3.92;;;2.10;;
39776;SDS011;25453;48.162;14.510;2022-07-23T19:02:43;3.13;;;1.85;;
39776;SDS011;25453;48.162;14.510;2022-07-23T19:05:11;2.55;;;1.90;;
39776;SDS011;25453;48.162;14.510;2022-07-23T19:07:39;3.22;;;2.10;;
39776;SDS011;25453;48.162;14.510;2022-07-23T19:10:08;3.17;;;1.90;;
39776;SDS011;25453;48.162;14.510;2022-07-23T19:12:37;4.00;;;2.15;;
39776;SDS011;25453;48.162;14.510;2022-07-23T19:15:05;4.72;;;2.50;;
39776;SDS011;25453;48.162;14.510;2022-07-23T19:17:34;3.75;;;2.20;;
39776;SDS011;25453;48.162;14.510;2022-07-23T19:20:01;3.28;;;1.80;;
39776;SDS011;25453;48.162;14.510;2022-07-23T19:22:33;3.20;;;1.95;;
39776;SDS011;25453;48.162;14.510;2022-07-23T19:25:03;3.45;;;2.05;;
39776;SDS011;25453;48.162;14.510;2022-07-23T19:27:31;4.00;;;2.20;;
39776;SDS011;25453;48.162;14.510;2022-07-23T19:29:59;3.17;;;2.13;;
39776;SDS011;25453;48.162;14.510;2022-07-23T19:32:27;3.80;;;2.15;;
39776;SDS011;25453;48.162;14.510;2022-07-23T19:35:01;3.67;;;2.00;;
39776;SDS011;25453;48.162;14.510;2022-07-23T19:37:30;3.63;;;2.30;;
39776;SDS011;25453;48.162;14.510;2022-07-23T19:40:01;5.63;;;3.10;;
39776;SDS011;25453;48.162;14.510;2022-07-23T19:42:32;4.88;;;2.88;;
39776;SDS011;25453;48.162;14.510;2022-07-23T19:45:06;5.60;;;3.08;;
39776;SDS011;25453;48.162;14.510;2022-07-23T19:47:36;4.43;;;2.92;;
39776;SDS011;25453;48.162;14.510;2022-07-23T19:50:15;5.82;;;2.83;;
39776;SDS011;25453;48.162;14.510;2022-07-23T19:52:43;4.63;;;2.80;;
39776;SDS011;25453;48.162;14.510;2022-07-23T19:55:12;5.25;;;3.00;;
39776;SDS011;25453;48.162;14.510;2022-07-23T19:57:41;5.63;;;2.90;;
39776;SDS011;25453;48.162;14.510;2022-07-23T20:00:08;5.80;;;2.72;;
39776;SDS011;25453;48.162;14.510;2022-07-23T20:02:37;5.55;;;3.10;;
39776;SDS011;25453;48.162;14.510;2022-07-23T20:05:07;6.05;;;3.60;;
39776;SDS011;25453;48.162;14.510;2022-07-23T20:07:47;5.28;;;3.00;;
39776;SDS011;25453;48.162;14.510;2022-07-23T20:10:18;6.00;;;3.20;;
39776;SDS011;25453;48.162;14.510;2022-07-23T20:12:46;6.30;;;3.53;;
39776;SDS011;25453;48.162;14.510;2022-07-23T20:15:15;4.90;;;2.78;;
39776;SDS011;25453;48.162;14.510;2022-07-23T20:17:43;5.45;;;3.38;;
39776;SDS011;25453;48.162;14.510;2022-07-23T20:20:10;6.03;;;3.03;;
39776;SDS011;25453;48.162;14.510;2022-07-23T20:22:39;6.15;;;2.85;;
39776;SDS011;25453;48.162;14.510;2022-07-23T20:25:07;5.13;;;3.05;;
39776;SDS011;25453;48.162;14.510;2022-07-23T20:27:35;5.05;;;3.15;;
39776;SDS011;25453;48.162;14.510;2022-07-23T20:30:03;4.95;;;2.88;;
39776;SDS011;25453;48.162;14.510;2022-07-23T20:32:32;4.80;;;2.88;;
39776;SDS011;25453;48.162;14.510;2022-07-23T20:35:00;3.95;;;2.40;;
39776;SDS011;25453;48.162;14.510;2022-07-23T20:37:27;4.07;;;2.63;;
39776;SDS011;25453;48.162;14.510;2022-07-23T20:39:55;4.43;;;2.42;;
39776;SDS011;25453;48.162;14.510;2022-07-23T20:42:23;3.88;;;1.90;;
39776;SDS011;25453;48.162;14.510;2022-07-23T20:44:50;2.97;;;1.73;;
39776;SDS011;25453;48.162;14.510;2022-07-23T20:47:19;3.60;;;1.90;;
39776;SDS011;25453;48.162;14.510;2022-07-23T20:49:46;4.03;;;2.08;;
39776;SDS011;25453;48.162;14.510;2022-07-23T20:52:14;3.45;;;2.08;;
39776;SDS011;25453;48.162;14.510;2022-07-23T20:54:48;4.43;;;2.17;;
39776;SDS011;25453;48.162;14.510;2022-07-23T20:57:16;4.70;;;2.63;;
39776;SDS011;25453;48.162;14.510;2022-07-23T20:59:43;3.78;;;2.42;;
39776;SDS011;25453;48.162;14.510;2022-07-23T21:02:10;3.83;;;2.55;;
39776;SDS011;25453;48.162;14.510;2022-07-23T21:04:38;4.43;;;2.40;;
39776;SDS011;25453;48.162;14.510;2022-07-23T21:07:12;4.32;;;2.53;;
39776;SDS011;25453;48.162;14.510;2022-07-23T21:09:44;4.35;;;2.30;;
39776;SDS011;25453;48.162;14.510;2022-07-23T21:12:13;4.47;;;2.45;;
39776;SDS011;25453;48.162;14.510;2022-07-23T21:14:42;4.10;;;2.35;;
39776;SDS011;25453;48.162;14.510;2022-07-23T21:17:11;4.13;;;2.30;;
39776;SDS011;25453;48.162;14.510;2022-07-23T21:19:39;4.20;;;2.63;;
39776;SDS011;25453;48.162;14.510;2022-07-23T21:22:06;3.90;;;2.28;;
39776;SDS011;25453;48.162;14.510;2022-07-23T21:24:35;4.82;;;2.70;;
39776;SDS011;25453;48.162;14.510;2022-07-23T21:27:02;4.70;;;2.80;;
39776;SDS011;25453;48.162;14.510;2022-07-23T21:29:34;5.28;;;2.75;;
39776;SDS011;25453;48.162;14.510;2022-07-23T21:32:02;4.43;;;2.55;;
39776;SDS011;25453;48.162;14.510;2022-07-23T21:34:29;4.13;;;2.53;;
39776;SDS011;25453;48.162;14.510;2022-07-23T21:36:57;3.70;;;2.40;;
39776;SDS011;25453;48.162;14.510;2022-07-23T21:39:25;4.82;;;2.78;;
39776;SDS011;25453;48.162;14.510;2022-07-23T21:41:53;5.10;;;2.65;;
39776;SDS011;25453;48.162;14.510;2022-07-23T21:44:26;6.18;;;2.85;;
39776;SDS011;25453;48.162;14.510;2022-07-23T21:46:54;4.72;;;2.92;;
39776;SDS011;25453;48.162;14.510;2022-07-23T21:49:24;3.42;;;1.85;;
39776;SDS011;25453;48.162;14.510;2022-07-23T21:51:54;4.88;;;2.42;;
39776;SDS011;25453;48.162;14.510;2022-07-23T21:54:22;3.58;;;2.20;;
39776;SDS011;25453;48.162;14.510;2022-07-23T21:56:52;3.53;;;2.25;;
39776;SDS011;25453;48.162;14.510;2022-07-23T21:59:20;3.97;;;2.10;;
39776;SDS011;25453;48.162;14.510;2022-07-23T22:01:47;3.03;;;2.03;;
39776;SDS011;25453;48.162;14.510;2022-07-23T22:04:15;3.35;;;2.05;;
39776;SDS011;25453;48.162;14.510;2022-07-23T22:06:43;4.43;;;2.40;;
39776;SDS011;25453;48.162;14.510;2022-07-23T22:09:10;4.60;;;2.67;;
39776;SDS011;25453;48.162;14.510;2022-07-23T22:11:38;5.05;;;3.00;;
39776;SDS011;25453;48.162;14.510;2022-07-23T22:14:06;4.50;;;2.95;;
39776;SDS011;25453;48.162;14.510;2022-07-23T22:16:34;6.18;;;3.10;;
39776;SDS011;25453;48.162;14.510;2022-07-23T22:19:02;6.32;;;2.95;;
39776;SDS011;25453;48.162;14.510;2022-07-23T22:21:30;4.45;;;3.22;;
39776;SDS011;25453;48.162;14.510;2022-07-23T22:24:13;5.97;;;3.28;;
39776;SDS011;25453;48.162;14.510;2022-07-23T22:26:41;5.28;;;2.88;;
39776;SDS011;25453;48.162;14.510;2022-07-23T22:29:10;5.10;;;3.00;;
39776;SDS011;25453;48.162;14.510;2022-07-23T22:31:47;4.80;;;2.88;;
39776;SDS011;25453;48.162;14.510;2022-07-23T22:34:14;4.78;;;2.78;;
39776;SDS011;25453;48.162;14.510;2022-07-23T22:36:42;5.47;;;2.60;;
39776;SDS011;25453;48.162;14.510;2022-07-23T22:39:09;4.15;;;2.17;;
39776;SDS011;25453;48.162;14.510;2022-07-23T22:41:36;3.72;;;2.22;;
39776;SDS011;25453;48.162;14.510;2022-07-23T22:44:06;3.90;;;2.00;;
39776;SDS011;25453;48.162;14.510;2022-07-23T22:46:33;2.30;;;1.60;;
39776;SDS011;25453;48.162;14.510;2022-07-23T22:49:00;3.40;;;1.75;;
39776;SDS011;25453;48.162;14.510;2022-07-23T22:51:28;4.30;;;2.47;;
39776;SDS011;25453;48.162;14.510;2022-07-23T22:53:58;2.70;;;1.70;;
39776;SDS011;25453;48.162;14.510;2022-07-23T22:56:26;2.80;;;1.70;;
39776;SDS011;25453;48.162;14.510;2022-07-23T22:58:53;3.17;;;1.77;;
39776;SDS011;25453;48.162;14.510;2022-07-23T23:01:40;3.55;;;1.73;;
39776;SDS011;25453;48.162;14.510;2022-07-23T23:04:08;3.63;;;1.80;;
39776;SDS011;25453;48.162;14.510;2022-07-23T23:06:35;3.50;;;1.95;;
39776;SDS011;25453;48.162;14.510;2022-07-23T23:09:03;6.05;;;2.17;;
39776;SDS011;25453;48.162;14.510;2022-07-23T23:11:31;3.03;;;1.92;;
39776;SDS011;25453;48.162;14.510;2022-07-23T23:14:01;3.88;;;2.28;;
39776;SDS011;25453;48.162;14.510;2022-07-23T23:16:28;3.92;;;2.20;;
39776;SDS011;25453;48.162;14.510;2022-07-23T23:18:56;3.53;;;1.80;;
39776;SDS011;25453;48.162;14.510;2022-07-23T23:21:24;3.95;;;2.20;;
39776;SDS011;25453;48.162;14.510;2022-07-23T23:23:55;3.97;;;1.83;;
39776;SDS011;25453;48.162;14.510;2022-07-23T23:26:23;2.95;;;1.65;;
39776;SDS011;25453;48.162;14.510;2022-07-23T23:28:52;3.50;;;1.73;;
39776;SDS011;25453;48.162;14.510;2022-07-23T23:31:19;2.72;;;1.45;;
39776;SDS011;25453;48.162;14.510;2022-07-23T23:33:46;2.50;;;1.50;;
39776;SDS011;25453;48.162;14.510;2022-07-23T23:36:14;2.08;;;1.35;;
39776;SDS011;25453;48.162;14.510;2022-07-23T23:38:42;3.25;;;1.30;;
39776;SDS011;25453;48.162;14.510;2022-07-23T23:41:09;2.17;;;1.40;;
39776;SDS011;25453;48.162;14.510;2022-07-23T23:43:37;2.53;;;1.40;;
39776;SDS011;25453;48.162;14.510;2022-07-23T23:46:04;2.88;;;1.65;;
39776;SDS011;25453;48.162;14.510;2022-07-23T23:48:32;2.42;;;1.40;;
39776;SDS011;25453;48.162;14.510;2022-07-23T23:51:00;3.25;;;1.67;;
39776;SDS011;25453;48.162;14.510;2022-07-23T23:53:27;3.15;;;2.00;;
39776;SDS011;25453;48.162;14.510;2022-07-23T23:55:55;2.42;;;1.48;;
39776;SDS011;25453;48.162;14.510;2022-07-23T23:58:24;2.95;;;1.30;;
